createdAt,value
2022-11-28T00:01:48.886Z,82.30
2022-11-28T00:04:16.189Z,87.40
2022-11-28T00:06:50.581Z,92.40
2022-11-28T00:09:21.418Z,93.03
2022-11-28T00:11:51.593Z,91.68
2022-11-28T00:14:24.156Z,92.70
2022-11-28T00:16:51.674Z,97.20
2022-11-28T00:19:18.838Z,93.53
2022-11-28T00:21:48.237Z,92.35
2022-11-28T00:24:16.473Z,93.40
2022-11-28T00:26:46.002Z,88.78
2022-11-28T00:29:13.185Z,87.60
2022-11-28T00:31:43.800Z,98.40
2022-11-28T00:34:13.592Z,87.70
2022-11-28T00:36:45.246Z,91.50
2022-11-28T00:39:12.647Z,86.57
2022-11-28T00:41:40.253Z,84.03
2022-11-28T00:44:07.891Z,94.35
2022-11-28T00:46:37.976Z,84.88
2022-11-28T00:49:05.205Z,93.30
2022-11-28T00:51:35.308Z,83.82
2022-11-28T00:54:06.151Z,91.82
2022-11-28T00:56:36.880Z,87.32
2022-11-28T00:59:04.457Z,86.20
2022-11-28T01:01:39.919Z,95.72
2022-11-28T01:04:11.873Z,84.30
2022-11-28T01:06:46.988Z,95.03
2022-11-28T01:09:23.834Z,98.43
2022-11-28T01:11:53.358Z,91.07
2022-11-28T01:14:23.388Z,85.20
2022-11-28T01:16:55.597Z,92.50
2022-11-28T01:19:29.673Z,96.72
2022-11-28T01:21:59.388Z,94.30
2022-11-28T01:24:26.497Z,87.63
2022-11-28T01:26:53.930Z,91.20
2022-11-28T01:29:21.303Z,84.25
2022-11-28T01:31:51.209Z,183.25
2022-11-28T01:34:19.122Z,138.90
2022-11-28T01:36:46.730Z,89.43
2022-11-28T01:39:15.701Z,86.60
2022-11-28T01:41:43.124Z,89.35
2022-11-28T01:44:18.449Z,90.05
2022-11-28T01:46:46.210Z,86.90
2022-11-28T01:49:26.241Z,90.88
2022-11-28T01:52:04.696Z,92.68
2022-11-28T01:54:35.428Z,81.63
2022-11-28T01:57:08.132Z,89.45
2022-11-28T01:59:43.367Z,79.95
2022-11-28T02:02:19.977Z,89.30
2022-11-28T02:04:50.296Z,87.88
2022-11-28T02:07:21.175Z,87.15
2022-11-28T02:09:50.579Z,95.57
2022-11-28T02:12:35.746Z,86.38
2022-11-28T02:15:19.688Z,95.32
2022-11-28T02:18:09.171Z,81.47
2022-11-28T02:21:04.158Z,89.32
2022-11-28T02:23:54.348Z,86.25
2022-11-28T02:26:29.802Z,80.65
2022-11-28T02:29:14.785Z,84.80
2022-11-28T02:32:09.871Z,78.82
2022-11-28T02:35:20.927Z,75.03
2022-11-28T02:38:07.627Z,80.38
2022-11-28T02:41:03.196Z,83.25
2022-11-28T02:43:51.762Z,81.88
2022-11-28T02:46:49.839Z,78.70
2022-11-28T02:49:43.401Z,75.65
2022-11-28T02:52:19.850Z,77.45
2022-11-28T02:54:52.218Z,74.80
2022-11-28T02:57:22.069Z,75.05
2022-11-28T02:59:50.441Z,76.57
2022-11-28T03:02:36.009Z,72.28
2022-11-28T03:05:18.971Z,67.78
2022-11-28T03:08:17.009Z,72.07
2022-11-28T03:11:21.609Z,68.05
2022-11-28T03:13:54.321Z,71.18
2022-11-28T03:16:30.488Z,74.85
2022-11-28T03:19:00.914Z,69.57
2022-11-28T03:21:45.081Z,71.05
2022-11-28T03:24:15.252Z,66.38
2022-11-28T03:27:15.464Z,60.03
2022-11-28T03:29:58.701Z,73.43
2022-11-28T03:32:33.336Z,71.22
2022-11-28T03:35:12.584Z,70.13
2022-11-28T03:37:45.394Z,67.72
2022-11-28T03:40:20.508Z,71.82
2022-11-28T03:43:03.685Z,74.68
2022-11-28T03:45:40.044Z,67.88
2022-11-28T03:48:12.913Z,71.72
2022-11-28T03:50:48.481Z,73.18
2022-11-28T03:53:24.014Z,70.57
2022-11-28T03:56:05.675Z,64.25
2022-11-28T03:58:43.869Z,76.40
2022-11-28T04:01:38.817Z,69.35
2022-11-28T04:04:31.180Z,66.15
2022-11-28T04:07:25.692Z,66.65
2022-11-28T04:10:02.311Z,71.72
2022-11-28T04:12:54.345Z,70.18
2022-11-28T04:15:28.905Z,73.67
2022-11-28T04:18:11.632Z,66.03
2022-11-28T04:20:55.332Z,65.90
2022-11-28T04:23:29.560Z,69.00
2022-11-28T04:26:08.323Z,73.88
2022-11-28T04:28:40.794Z,66.38
2022-11-28T04:33:44.208Z,58.25
2022-11-28T04:36:12.192Z,64.38
2022-11-28T04:38:57.880Z,73.05
2022-11-28T04:41:37.405Z,58.17
2022-11-28T04:44:12.780Z,61.63
2022-11-28T04:46:47.349Z,63.70
2022-11-28T04:49:17.605Z,67.60
2022-11-28T04:52:09.489Z,66.40
2022-11-28T04:55:11.829Z,69.90
2022-11-28T04:57:57.324Z,63.78
2022-11-28T05:00:26.768Z,65.40
2022-11-28T05:02:55.144Z,68.32
2022-11-28T05:05:26.006Z,61.97
2022-11-28T05:07:53.550Z,62.30
2022-11-28T05:10:23.605Z,61.35
2022-11-28T05:12:52.968Z,62.13
2022-11-28T05:15:20.317Z,62.45
2022-11-28T05:17:49.534Z,67.85
2022-11-28T05:20:19.332Z,59.55
2022-11-28T05:22:46.742Z,56.72
2022-11-28T05:25:20.036Z,62.40
2022-11-28T05:27:49.477Z,57.80
2022-11-28T05:30:17.269Z,60.40
2022-11-28T05:32:46.758Z,58.50
2022-11-28T05:35:16.593Z,63.92
2022-11-28T05:37:46.276Z,57.47
2022-11-28T05:40:15.950Z,54.10
2022-11-28T05:45:13.642Z,60.25
2022-11-28T05:47:43.193Z,58.45
2022-11-28T05:50:10.940Z,56.90
2022-11-28T05:52:40.237Z,55.35
2022-11-28T05:55:08.018Z,56.22
2022-11-28T05:57:42.258Z,59.65
2022-11-28T06:00:10.356Z,56.97
2022-11-28T06:02:43.984Z,63.15
2022-11-28T06:05:40.982Z,61.42
2022-11-28T06:08:05.525Z,57.50
2022-11-28T06:10:37.736Z,65.40
2022-11-28T06:13:07.350Z,60.20
2022-11-28T06:15:38.718Z,57.10
2022-11-28T06:18:06.130Z,56.17
2022-11-28T06:20:35.803Z,56.92
2022-11-28T06:23:03.011Z,62.38
2022-11-28T06:25:30.422Z,61.67
2022-11-28T06:27:59.917Z,65.63
2022-11-28T06:30:27.473Z,54.85
2022-11-28T06:32:56.837Z,68.68
2022-11-28T06:35:26.733Z,63.17
2022-11-28T06:37:53.880Z,61.63
2022-11-28T06:40:24.216Z,70.82
2022-11-28T06:42:51.332Z,73.05
2022-11-28T06:45:21.209Z,68.43
2022-11-28T06:47:48.272Z,73.97
2022-11-28T06:50:15.680Z,76.55
2022-11-28T06:52:45.084Z,64.78
2022-11-28T06:55:17.658Z,70.80
2022-11-28T06:57:47.422Z,60.42
2022-11-28T07:00:19.694Z,71.72
2022-11-28T07:02:49.324Z,60.50
2022-11-28T07:05:21.486Z,65.03
2022-11-28T07:07:54.128Z,62.67
2022-11-28T07:10:30.140Z,61.85
2022-11-28T07:13:05.100Z,58.97
2022-11-28T07:15:33.004Z,58.17
2022-11-28T07:18:02.841Z,60.63
2022-11-28T07:20:35.379Z,62.10
2022-11-28T07:23:02.530Z,60.10
2022-11-28T07:25:32.230Z,62.47
2022-11-28T07:28:02.312Z,63.63
2022-11-28T07:30:29.777Z,62.13
2022-11-28T07:32:56.942Z,62.85
2022-11-28T07:35:26.685Z,64.40
2022-11-28T07:37:54.067Z,66.30
2022-11-28T07:40:26.094Z,64.55
2022-11-28T07:42:55.597Z,52.53
2022-11-28T07:45:37.016Z,51.35
2022-11-28T07:48:13.017Z,53.65
2022-11-28T07:50:42.968Z,56.60
2022-11-28T07:53:10.019Z,53.28
2022-11-28T07:55:41.789Z,51.88
2022-11-28T07:58:11.443Z,58.95
2022-11-28T08:00:39.032Z,57.17
2022-11-28T08:03:06.209Z,50.70
2022-11-28T08:05:34.061Z,57.05
2022-11-28T08:08:06.037Z,52.22
2022-11-28T08:10:33.814Z,61.78
2022-11-28T08:13:05.482Z,53.13
2022-11-28T08:15:32.895Z,48.88
2022-11-28T08:18:02.240Z,49.10
2022-11-28T08:20:36.740Z,45.95
2022-11-28T08:23:04.007Z,48.88
2022-11-28T08:25:31.446Z,50.40
2022-11-28T08:27:58.578Z,43.53
2022-11-28T08:30:31.292Z,43.08
2022-11-28T08:32:58.597Z,52.75
2022-11-28T08:35:28.309Z,56.55
2022-11-28T08:38:01.746Z,45.75
2022-11-28T08:40:32.176Z,46.70
2022-11-28T08:43:01.279Z,49.08
2022-11-28T08:45:28.759Z,48.35
2022-11-28T08:47:59.227Z,48.28
2022-11-28T08:50:26.562Z,56.50
2022-11-28T08:53:01.466Z,45.72
2022-11-28T08:55:32.065Z,46.85
2022-11-28T08:58:03.098Z,48.05
2022-11-28T09:00:31.882Z,48.95
2022-11-28T09:03:03.587Z,43.70
2022-11-28T09:05:35.406Z,41.38
2022-11-28T09:08:07.787Z,45.80
2022-11-28T09:10:39.166Z,43.33
2022-11-28T09:13:07.109Z,44.13
2022-11-28T09:15:39.869Z,47.65
2022-11-28T09:18:07.581Z,47.22
2022-11-28T09:20:35.474Z,46.35
2022-11-28T09:23:02.753Z,45.65
2022-11-28T09:25:35.814Z,41.95
2022-11-28T09:28:06.938Z,39.55
2022-11-28T09:30:36.755Z,41.10
2022-11-28T09:33:04.924Z,43.25
2022-11-28T09:35:34.454Z,45.75
2022-11-28T09:38:06.901Z,50.90
2022-11-28T09:40:38.770Z,38.60
2022-11-28T09:43:23.845Z,42.70
2022-11-28T09:45:53.865Z,43.15
2022-11-28T09:48:52.745Z,44.03
2022-11-28T09:51:47.882Z,42.25
2022-11-28T09:54:34.763Z,40.58
2022-11-28T09:57:03.786Z,42.95
2022-11-28T09:59:36.642Z,44.17
2022-11-28T10:02:13.112Z,42.47
2022-11-28T10:04:59.239Z,44.15
2022-11-28T10:07:55.347Z,54.22
2022-11-28T10:10:50.426Z,41.22
2022-11-28T10:14:05.957Z,45.20
2022-11-28T10:17:02.231Z,36.92
2022-11-28T10:20:00.839Z,42.53
2022-11-28T10:22:55.151Z,36.55
2022-11-28T10:25:40.548Z,38.37
2022-11-28T10:28:19.534Z,36.00
2022-11-28T10:30:57.850Z,39.47
2022-11-28T10:33:30.112Z,34.22
2022-11-28T10:38:39.003Z,43.97
2022-11-28T10:41:18.467Z,37.50
2022-11-28T10:44:05.195Z,36.58
2022-11-28T10:46:42.903Z,34.80
2022-11-28T10:49:24.142Z,38.50
2022-11-28T10:52:14.300Z,43.15
2022-11-28T10:55:07.477Z,34.13
2022-11-28T10:58:09.913Z,37.42
2022-11-28T11:00:38.199Z,41.10
2022-11-28T11:03:10.552Z,32.00
2022-11-28T11:05:37.981Z,37.00
2022-11-28T11:08:22.304Z,33.15
2022-11-28T11:11:02.104Z,29.40
2022-11-28T11:13:53.713Z,29.70
2022-11-28T11:16:20.872Z,35.97
2022-11-28T11:18:48.437Z,37.40
2022-11-28T11:21:28.677Z,37.15
2022-11-28T11:24:18.388Z,42.90
2022-11-28T11:26:50.928Z,30.13
2022-11-28T11:29:23.981Z,36.20
2022-11-28T11:31:53.340Z,32.55
2022-11-28T11:34:27.545Z,28.48
2022-11-28T11:37:23.226Z,27.60
2022-11-28T11:39:53.381Z,36.45
2022-11-28T11:42:26.346Z,41.75
2022-11-28T11:45:46.174Z,32.72
2022-11-28T11:48:37.494Z,36.80
2022-11-28T11:51:21.416Z,30.75
2022-11-28T11:54:25.410Z,32.72
2022-11-28T11:57:11.214Z,30.70
2022-11-28T11:59:51.309Z,28.20
2022-11-28T12:02:45.471Z,36.17
2022-11-28T12:05:23.039Z,37.72
2022-11-28T12:08:05.298Z,32.72
2022-11-28T12:10:39.897Z,36.58
2022-11-28T12:13:21.807Z,32.92
2022-11-28T12:16:35.418Z,57.53
2022-11-28T12:19:29.775Z,46.92
2022-11-28T12:22:34.903Z,32.97
2022-11-28T12:25:28.150Z,32.25
2022-11-28T12:30:46.401Z,39.35
2022-11-28T12:33:52.775Z,33.15
2022-11-28T12:36:44.557Z,41.67
2022-11-28T12:39:46.608Z,45.20
2022-11-28T12:42:47.215Z,38.33
2022-11-28T12:45:35.453Z,39.33
2022-11-28T12:48:16.769Z,43.72
2022-11-28T12:50:47.931Z,46.97
2022-11-28T12:53:52.996Z,40.40
2022-11-28T12:57:05.505Z,39.60
2022-11-28T12:59:44.953Z,45.08
2022-11-28T13:02:42.528Z,47.83
2022-11-28T13:05:34.778Z,45.80
2022-11-28T13:08:26.432Z,56.97
2022-11-28T13:11:47.319Z,48.47
2022-11-28T13:14:49.622Z,40.38
2022-11-28T13:17:38.777Z,45.75
2022-11-28T13:20:36.421Z,47.45
2022-11-28T13:23:26.796Z,45.85
2022-11-28T13:26:02.934Z,51.67
2022-11-28T13:28:38.617Z,54.95
2022-11-28T13:31:36.509Z,55.50
2022-11-28T13:34:18.590Z,81.30
2022-11-28T13:40:28.527Z,69.07
2022-11-28T13:43:08.675Z,68.07
2022-11-28T13:45:41.380Z,63.25
2022-11-28T13:49:12.439Z,69.20
2022-11-28T13:51:33.659Z,58.38
2022-11-28T13:54:19.896Z,83.88
2022-11-28T13:57:26.093Z,70.35
2022-11-28T14:00:01.701Z,62.80
2022-11-28T14:02:46.207Z,63.83
2022-11-28T14:05:28.157Z,65.43
2022-11-28T14:07:58.509Z,66.70
2022-11-28T14:10:30.836Z,62.33
2022-11-28T14:13:24.277Z,66.03
2022-11-28T14:15:56.694Z,57.28
2022-11-28T14:18:56.356Z,58.45
2022-11-28T14:21:46.993Z,59.78
2022-11-28T14:24:51.084Z,68.13
2022-11-28T14:27:32.352Z,64.35
2022-11-28T14:30:01.051Z,81.55
2022-11-28T14:32:32.360Z,57.47
2022-11-28T14:35:03.637Z,72.43
2022-11-28T14:37:35.846Z,67.43
2022-11-28T14:40:44.376Z,64.68
2022-11-28T14:43:23.945Z,71.53
2022-11-28T14:46:12.490Z,72.30
2022-11-28T14:48:42.474Z,71.97
2022-11-28T14:51:12.513Z,58.20
2022-11-28T14:53:44.961Z,66.10
2022-11-28T14:56:22.589Z,58.40
2022-11-28T14:58:57.112Z,62.85
2022-11-28T15:01:46.096Z,66.55
2022-11-28T15:04:28.522Z,58.53
2022-11-28T15:06:57.849Z,62.28
2022-11-28T15:09:35.877Z,63.22
2022-11-28T15:12:11.463Z,68.72
2022-11-28T15:14:42.657Z,75.15
2022-11-28T15:17:13.281Z,79.63
2022-11-28T15:19:48.411Z,66.00
2022-11-28T15:22:33.542Z,63.20
2022-11-28T15:25:02.873Z,58.42
2022-11-28T15:27:32.721Z,70.18
2022-11-28T15:30:19.712Z,63.33
2022-11-28T15:32:51.957Z,56.08
2022-11-28T15:35:22.982Z,60.95
2022-11-28T15:37:59.119Z,57.72
2022-11-28T15:40:33.951Z,61.72
2022-11-28T15:43:11.088Z,64.20
2022-11-28T15:45:42.351Z,62.92
2022-11-28T15:48:40.173Z,59.92
2022-11-28T15:51:29.137Z,64.85
2022-11-28T15:53:56.925Z,60.45
2022-11-28T15:56:29.202Z,69.13
2022-11-28T15:58:59.212Z,72.97
2022-11-28T16:01:30.641Z,64.70
2022-11-28T16:04:14.903Z,66.13
2022-11-28T16:06:51.428Z,63.53
2022-11-28T16:09:19.057Z,70.25
2022-11-28T16:11:51.284Z,96.70
2022-11-28T16:14:34.467Z,113.10
2022-11-28T16:17:06.393Z,107.43
2022-11-28T16:19:37.949Z,91.60
2022-11-28T16:22:19.067Z,75.43
2022-11-28T16:24:54.761Z,71.75
2022-11-28T16:27:35.145Z,72.93
2022-11-28T16:30:45.588Z,69.28
2022-11-28T16:33:42.237Z,71.35
2022-11-28T16:36:19.169Z,64.25
2022-11-28T16:38:51.479Z,65.28
2022-11-28T16:41:26.811Z,68.22
2022-11-28T16:44:02.209Z,75.63
2022-11-28T16:46:57.268Z,74.85
2022-11-28T16:49:44.789Z,67.75
2022-11-28T16:52:21.408Z,71.78
2022-11-28T16:54:54.981Z,75.95
2022-11-28T16:57:44.288Z,71.03
2022-11-28T17:00:11.960Z,74.25
2022-11-28T17:02:41.981Z,78.70
2022-11-28T17:05:11.858Z,75.47
2022-11-28T17:07:42.242Z,72.75
2022-11-28T17:10:14.600Z,73.40
2022-11-28T17:12:42.226Z,74.22
2022-11-28T17:15:17.958Z,72.55
2022-11-28T17:17:47.815Z,73.88
2022-11-28T17:20:15.738Z,80.95
2022-11-28T17:22:49.911Z,63.03
2022-11-28T17:25:22.324Z,70.63
2022-11-28T17:27:52.971Z,74.47
2022-11-28T17:30:22.861Z,75.68
2022-11-28T17:32:55.534Z,72.32
2022-11-28T17:35:25.515Z,74.45
2022-11-28T17:37:54.990Z,85.88
2022-11-28T17:40:33.452Z,76.65
2022-11-28T17:43:03.686Z,75.88
2022-11-28T17:45:34.595Z,76.18
2022-11-28T17:48:05.162Z,72.90
2022-11-28T17:50:32.622Z,72.50
2022-11-28T17:53:00.108Z,85.32
2022-11-28T17:55:30.636Z,77.30
2022-11-28T17:58:00.559Z,79.38
2022-11-28T18:00:29.293Z,82.32
2022-11-28T18:03:00.134Z,71.30
2022-11-28T18:05:27.349Z,64.15
2022-11-28T18:07:57.449Z,62.05
2022-11-28T18:10:24.644Z,63.15
2022-11-28T18:12:56.549Z,69.25
2022-11-28T18:15:26.201Z,66.05
2022-11-28T18:17:56.500Z,60.28
2022-11-28T18:20:28.739Z,65.78
2022-11-28T18:23:00.500Z,66.93
2022-11-28T18:25:30.589Z,72.75
2022-11-28T18:28:00.558Z,64.15
2022-11-28T18:30:30.116Z,71.00
2022-11-28T18:32:57.920Z,70.20
2022-11-28T18:35:29.824Z,66.50
2022-11-28T18:37:57.277Z,61.22
2022-11-28T18:40:26.670Z,69.95
2022-11-28T18:42:56.725Z,68.82
2022-11-28T18:45:24.024Z,77.85
2022-11-28T18:47:55.880Z,62.85
2022-11-28T18:50:28.281Z,62.35
2022-11-28T18:52:56.223Z,65.65
2022-11-28T18:55:26.212Z,57.13
2022-11-28T18:57:55.187Z,72.65
2022-11-28T19:00:22.873Z,62.20
2022-11-28T19:02:53.339Z,57.35
2022-11-28T19:05:21.516Z,59.20
2022-11-28T19:07:48.985Z,63.40
2022-11-28T19:10:16.273Z,60.80
2022-11-28T19:12:43.882Z,62.83
2022-11-28T19:15:13.469Z,61.38
2022-11-28T19:17:40.880Z,77.97
2022-11-28T19:20:11.065Z,62.35
2022-11-28T19:22:40.758Z,66.82
2022-11-28T19:25:10.414Z,59.38
2022-11-28T19:27:38.033Z,58.03
2022-11-28T19:30:08.189Z,51.88
2022-11-28T19:32:40.459Z,54.67
2022-11-28T19:35:08.981Z,51.53
2022-11-28T19:37:36.907Z,51.17
2022-11-28T19:40:10.268Z,56.08
2022-11-28T19:42:37.736Z,48.63
2022-11-28T19:45:05.473Z,58.60
2022-11-28T19:47:36.049Z,55.28
2022-11-28T19:50:07.017Z,52.53
2022-11-28T19:52:34.457Z,55.58
2022-11-28T19:55:01.754Z,52.05
2022-11-28T19:57:29.604Z,52.67
2022-11-28T19:59:59.033Z,50.95
2022-11-28T20:02:28.948Z,58.90
2022-11-28T20:04:58.941Z,53.35
2022-11-28T20:07:30.808Z,47.63
2022-11-28T20:10:00.649Z,53.35
2022-11-28T20:12:31.844Z,48.13
2022-11-28T20:15:04.914Z,48.85
2022-11-28T20:17:32.612Z,80.60
2022-11-28T20:19:59.830Z,51.55
2022-11-28T20:22:30.830Z,52.83
2022-11-28T20:25:00.529Z,51.20
2022-11-28T20:27:30.946Z,52.05
2022-11-28T20:30:07.098Z,51.67
2022-11-28T20:32:34.609Z,53.35
2022-11-28T20:35:01.801Z,48.42
2022-11-28T20:37:31.827Z,43.28
2022-11-28T20:40:01.632Z,43.13
2022-11-28T20:42:34.294Z,50.20
2022-11-28T20:45:07.600Z,53.35
2022-11-28T20:47:35.281Z,60.95
2022-11-28T20:50:02.397Z,54.08
2022-11-28T20:52:31.967Z,60.42
2022-11-28T20:55:01.598Z,47.22
2022-11-28T20:57:31.189Z,51.70
2022-11-28T20:59:58.514Z,58.72
2022-11-28T21:02:28.172Z,53.63
2022-11-28T21:04:55.313Z,57.85
2022-11-28T21:07:26.711Z,55.72
2022-11-28T21:10:00.116Z,55.75
2022-11-28T21:12:33.817Z,49.10
2022-11-28T21:15:02.003Z,52.05
2022-11-28T21:17:29.536Z,53.50
2022-11-28T21:19:59.062Z,44.72
2022-11-28T21:22:32.532Z,49.80
2022-11-28T21:25:02.805Z,48.60
2022-11-28T21:27:30.409Z,51.97
2022-11-28T21:30:02.325Z,51.45
2022-11-28T21:32:30.385Z,47.92
2022-11-28T21:35:04.212Z,42.13
2022-11-28T21:37:37.142Z,49.25
2022-11-28T21:40:09.296Z,49.25
2022-11-28T21:42:36.929Z,53.33
2022-11-28T21:45:07.112Z,52.00
2022-11-28T21:47:36.737Z,52.17
2022-11-28T21:50:04.338Z,45.80
2022-11-28T21:52:31.978Z,43.20
2022-11-28T21:55:01.235Z,46.03
2022-11-28T21:57:31.310Z,48.22
2022-11-28T21:59:58.922Z,44.75
2022-11-28T22:02:31.023Z,50.85
2022-11-28T22:05:03.654Z,46.80
2022-11-28T22:07:31.522Z,50.63
2022-11-28T22:09:58.898Z,53.33
2022-11-28T22:12:28.459Z,47.92
2022-11-28T22:14:55.610Z,49.08
2022-11-28T22:17:26.937Z,50.58
2022-11-28T22:19:54.145Z,50.88
2022-11-28T22:22:22.482Z,47.35
2022-11-28T22:24:50.025Z,45.03
2022-11-28T22:27:23.328Z,49.45
2022-11-28T22:29:50.956Z,53.97
2022-11-28T22:32:27.898Z,52.80
2022-11-28T22:34:55.168Z,46.83
2022-11-28T22:37:25.128Z,56.00
2022-11-28T22:39:57.228Z,49.67
2022-11-28T22:42:31.840Z,47.08
2022-11-28T22:45:06.400Z,48.13
2022-11-28T22:47:35.915Z,49.05
2022-11-28T22:50:03.230Z,58.17
2022-11-28T22:52:30.621Z,54.60
2022-11-28T22:55:02.194Z,52.28
2022-11-28T22:57:29.679Z,45.85
2022-11-28T22:59:57.426Z,51.42
2022-11-28T23:02:28.907Z,52.90
2022-11-28T23:04:58.673Z,52.45
2022-11-28T23:07:28.442Z,54.22
2022-11-28T23:09:55.681Z,51.63
2022-11-28T23:12:23.087Z,44.33
2022-11-28T23:14:51.796Z,50.65
2022-11-28T23:17:23.944Z,47.67
2022-11-28T23:19:53.501Z,56.03
2022-11-28T23:22:25.348Z,47.03
2022-11-28T23:24:52.670Z,57.63
2022-11-28T23:27:22.921Z,54.75
2022-11-28T23:29:50.124Z,49.45
2022-11-28T23:32:20.281Z,50.17
2022-11-28T23:34:49.834Z,49.30
2022-11-28T23:37:20.334Z,45.85
2022-11-28T23:39:47.389Z,56.33
2022-11-28T23:42:16.417Z,47.92
2022-11-28T23:44:48.236Z,55.17
2022-11-28T23:47:18.413Z,51.50
2022-11-28T23:49:50.178Z,51.42
2022-11-28T23:52:17.594Z,50.95
2022-11-28T23:54:44.938Z,49.05
2022-11-28T23:57:17.571Z,48.95
2022-11-28T23:59:44.925Z,52.95
